sensor_id;sensor_type;location;lat;lon;timestamp;P1;durP1;ratioP1;P2;durP2;ratioP2
33074;SDS011;19433;51.292;6.868;2023-09-19T00:00:58;9.57;;;3.30;;
33074;SDS011;19433;51.292;6.868;2023-09-19T00:03:24;6.03;;;3.13;;
33074;SDS011;19433;51.292;6.868;2023-09-19T00:05:50;9.20;;;3.00;;
33074;SDS011;19433;51.292;6.868;2023-09-19T00:08:15;10.17;;;3.57;;
33074;SDS011;19433;51.292;6.868;2023-09-19T00:10:41;12.17;;;3.13;;
33074;SDS011;19433;51.292;6.868;2023-09-19T00:13:07;6.20;;;2.50;;
33074;SDS011;19433;51.292;6.868;2023-09-19T00:15:38;7.87;;;3.80;;
33074;SDS011;19433;51.292;6.868;2023-09-19T00:18:05;7.60;;;3.10;;
33074;SDS011;19433;51.292;6.868;2023-09-19T00:20:31;7.43;;;3.53;;
33074;SDS011;19433;51.292;6.868;2023-09-19T00:22:57;11.27;;;3.27;;
33074;SDS011;19433;51.292;6.868;2023-09-19T00:25:24;7.43;;;3.33;;
33074;SDS011;19433;51.292;6.868;2023-09-19T00:27:50;10.63;;;2.80;;
33074;SDS011;19433;51.292;6.868;2023-09-19T00:30:17;7.73;;;2.60;;
33074;SDS011;19433;51.292;6.868;2023-09-19T00:32:46;15.17;;;3.60;;
33074;SDS011;19433;51.292;6.868;2023-09-19T00:35:13;6.27;;;2.80;;
33074;SDS011;19433;51.292;6.868;2023-09-19T00:37:42;7.43;;;3.30;;
33074;SDS011;19433;51.292;6.868;2023-09-19T00:40:08;7.90;;;3.13;;
33074;SDS011;19433;51.292;6.868;2023-09-19T00:42:40;13.00;;;3.30;;
33074;SDS011;19433;51.292;6.868;2023-09-19T00:45:06;9.20;;;3.50;;
33074;SDS011;19433;51.292;6.868;2023-09-19T00:47:34;9.77;;;2.97;;
33074;SDS011;19433;51.292;6.868;2023-09-19T00:50:00;0.40;;;0.40;;
33074;SDS011;19433;51.292;6.868;2023-09-19T00:52:27;7.53;;;2.93;;
33074;SDS011;19433;51.292;6.868;2023-09-19T00:54:52;10.03;;;3.00;;
33074;SDS011;19433;51.292;6.868;2023-09-19T00:57:19;8.60;;;2.50;;
33074;SDS011;19433;51.292;6.868;2023-09-19T00:59:47;6.43;;;3.00;;
33074;SDS011;19433;51.292;6.868;2023-09-19T01:02:15;9.93;;;4.07;;
33074;SDS011;19433;51.292;6.868;2023-09-19T01:04:41;7.47;;;3.33;;
33074;SDS011;19433;51.292;6.868;2023-09-19T01:07:07;9.60;;;3.17;;
33074;SDS011;19433;51.292;6.868;2023-09-19T01:09:33;10.30;;;3.40;;
33074;SDS011;19433;51.292;6.868;2023-09-19T01:12:00;6.80;;;2.83;;
33074;SDS011;19433;51.292;6.868;2023-09-19T01:14:44;7.07;;;2.70;;
33074;SDS011;19433;51.292;6.868;2023-09-19T01:17:30;6.27;;;2.40;;
33074;SDS011;19433;51.292;6.868;2023-09-19T01:20:09;10.63;;;4.03;;
33074;SDS011;19433;51.292;6.868;2023-09-19T01:31:12;5.43;;;3.00;;
33074;SDS011;19433;51.292;6.868;2023-09-19T01:33:57;6.63;;;2.73;;
33074;SDS011;19433;51.292;6.868;2023-09-19T01:36:27;12.30;;;2.53;;
33074;SDS011;19433;51.292;6.868;2023-09-19T01:38:54;6.83;;;2.73;;
33074;SDS011;19433;51.292;6.868;2023-09-19T01:41:26;9.50;;;2.73;;
33074;SDS011;19433;51.292;6.868;2023-09-19T01:44:03;11.03;;;3.20;;
33074;SDS011;19433;51.292;6.868;2023-09-19T01:46:34;9.50;;;3.10;;
33074;SDS011;19433;51.292;6.868;2023-09-19T01:49:13;6.90;;;2.40;;
33074;SDS011;19433;51.292;6.868;2023-09-19T01:51:55;8.23;;;2.63;;
33074;SDS011;19433;51.292;6.868;2023-09-19T01:54:30;12.07;;;3.20;;
33074;SDS011;19433;51.292;6.868;2023-09-19T01:57:16;12.97;;;3.90;;
33074;SDS011;19433;51.292;6.868;2023-09-19T01:59:50;6.27;;;2.90;;
33074;SDS011;19433;51.292;6.868;2023-09-19T02:02:21;12.10;;;2.90;;
33074;SDS011;19433;51.292;6.868;2023-09-19T02:04:48;5.07;;;2.67;;
33074;SDS011;19433;51.292;6.868;2023-09-19T02:07:15;10.10;;;3.10;;
33074;SDS011;19433;51.292;6.868;2023-09-19T02:09:41;10.87;;;3.60;;
33074;SDS011;19433;51.292;6.868;2023-09-19T02:12:08;8.00;;;3.20;;
33074;SDS011;19433;51.292;6.868;2023-09-19T02:14:34;6.17;;;3.03;;
33074;SDS011;19433;51.292;6.868;2023-09-19T02:17:01;8.30;;;3.00;;
33074;SDS011;19433;51.292;6.868;2023-09-19T02:19:28;5.77;;;2.53;;
33074;SDS011;19433;51.292;6.868;2023-09-19T02:21:54;6.43;;;2.47;;
33074;SDS011;19433;51.292;6.868;2023-09-19T02:24:20;8.30;;;2.87;;
33074;SDS011;19433;51.292;6.868;2023-09-19T02:26:45;9.90;;;3.03;;
33074;SDS011;19433;51.292;6.868;2023-09-19T02:29:11;11.27;;;3.20;;
33074;SDS011;19433;51.292;6.868;2023-09-19T02:31:37;9.97;;;3.37;;
33074;SDS011;19433;51.292;6.868;2023-09-19T02:34:03;9.57;;;3.80;;
33074;SDS011;19433;51.292;6.868;2023-09-19T02:36:30;7.67;;;3.30;;
33074;SDS011;19433;51.292;6.868;2023-09-19T02:38:55;9.03;;;3.43;;
33074;SDS011;19433;51.292;6.868;2023-09-19T02:41:21;13.07;;;3.03;;
33074;SDS011;19433;51.292;6.868;2023-09-19T02:43:46;6.80;;;2.83;;
33074;SDS011;19433;51.292;6.868;2023-09-19T02:46:12;5.70;;;3.07;;
33074;SDS011;19433;51.292;6.868;2023-09-19T02:48:37;10.23;;;2.77;;
33074;SDS011;19433;51.292;6.868;2023-09-19T02:51:03;10.80;;;3.07;;
33074;SDS011;19433;51.292;6.868;2023-09-19T02:53:28;9.07;;;2.67;;
33074;SDS011;19433;51.292;6.868;2023-09-19T02:55:56;7.57;;;3.03;;
33074;SDS011;19433;51.292;6.868;2023-09-19T02:58:21;13.40;;;3.00;;
33074;SDS011;19433;51.292;6.868;2023-09-19T03:00:47;8.53;;;3.87;;
33074;SDS011;19433;51.292;6.868;2023-09-19T03:03:14;9.13;;;2.50;;
33074;SDS011;19433;51.292;6.868;2023-09-19T03:05:41;7.17;;;2.33;;
33074;SDS011;19433;51.292;6.868;2023-09-19T03:08:11;7.90;;;2.40;;
33074;SDS011;19433;51.292;6.868;2023-09-19T03:10:39;8.03;;;3.20;;
33074;SDS011;19433;51.292;6.868;2023-09-19T03:13:06;4.30;;;2.87;;
33074;SDS011;19433;51.292;6.868;2023-09-19T03:15:34;8.20;;;3.00;;
33074;SDS011;19433;51.292;6.868;2023-09-19T03:18:02;10.03;;;2.87;;
33074;SDS011;19433;51.292;6.868;2023-09-19T03:20:27;5.47;;;2.13;;
33074;SDS011;19433;51.292;6.868;2023-09-19T03:22:53;3.63;;;2.17;;
33074;SDS011;19433;51.292;6.868;2023-09-19T03:25:18;10.77;;;3.30;;
33074;SDS011;19433;51.292;6.868;2023-09-19T03:27:44;9.83;;;3.53;;
33074;SDS011;19433;51.292;6.868;2023-09-19T03:30:09;9.27;;;2.93;;
33074;SDS011;19433;51.292;6.868;2023-09-19T03:32:43;7.80;;;2.93;;
33074;SDS011;19433;51.292;6.868;2023-09-19T03:35:10;7.50;;;3.63;;
33074;SDS011;19433;51.292;6.868;2023-09-19T03:37:39;8.13;;;3.10;;
33074;SDS011;19433;51.292;6.868;2023-09-19T03:40:06;7.57;;;2.60;;
33074;SDS011;19433;51.292;6.868;2023-09-19T03:42:32;5.53;;;3.10;;
33074;SDS011;19433;51.292;6.868;2023-09-19T03:44:57;6.30;;;2.70;;
33074;SDS011;19433;51.292;6.868;2023-09-19T03:47:24;4.73;;;2.40;;
33074;SDS011;19433;51.292;6.868;2023-09-19T03:49:49;3.50;;;2.27;;
33074;SDS011;19433;51.292;6.868;2023-09-19T03:52:15;7.13;;;2.30;;
33074;SDS011;19433;51.292;6.868;2023-09-19T03:54:41;8.70;;;2.67;;
33074;SDS011;19433;51.292;6.868;2023-09-19T03:57:06;7.57;;;2.93;;
33074;SDS011;19433;51.292;6.868;2023-09-19T03:59:31;5.70;;;2.87;;
33074;SDS011;19433;51.292;6.868;2023-09-19T04:01:57;8.83;;;2.90;;
33074;SDS011;19433;51.292;6.868;2023-09-19T04:04:23;9.47;;;2.47;;
33074;SDS011;19433;51.292;6.868;2023-09-19T04:06:50;4.60;;;2.77;;
33074;SDS011;19433;51.292;6.868;2023-09-19T04:09:16;8.27;;;3.30;;
33074;SDS011;19433;51.292;6.868;2023-09-19T04:11:41;8.60;;;3.37;;
33074;SDS011;19433;51.292;6.868;2023-09-19T04:14:06;4.53;;;3.07;;
33074;SDS011;19433;51.292;6.868;2023-09-19T04:16:32;8.63;;;2.70;;
33074;SDS011;19433;51.292;6.868;2023-09-19T04:18:57;8.83;;;3.03;;
33074;SDS011;19433;51.292;6.868;2023-09-19T04:21:22;10.83;;;2.97;;
33074;SDS011;19433;51.292;6.868;2023-09-19T04:23:47;6.13;;;2.70;;
33074;SDS011;19433;51.292;6.868;2023-09-19T04:26:13;9.87;;;4.53;;
33074;SDS011;19433;51.292;6.868;2023-09-19T04:28:38;6.70;;;2.90;;
33074;SDS011;19433;51.292;6.868;2023-09-19T04:31:04;7.93;;;3.40;;
33074;SDS011;19433;51.292;6.868;2023-09-19T04:33:30;7.00;;;2.83;;
33074;SDS011;19433;51.292;6.868;2023-09-19T04:35:55;6.37;;;3.23;;
33074;SDS011;19433;51.292;6.868;2023-09-19T04:38:21;13.43;;;3.90;;
33074;SDS011;19433;51.292;6.868;2023-09-19T04:40:47;5.90;;;3.20;;
33074;SDS011;19433;51.292;6.868;2023-09-19T04:43:12;3.80;;;2.67;;
33074;SDS011;19433;51.292;6.868;2023-09-19T04:45:38;7.80;;;2.80;;
33074;SDS011;19433;51.292;6.868;2023-09-19T04:48:04;12.40;;;3.27;;
33074;SDS011;19433;51.292;6.868;2023-09-19T04:50:31;9.93;;;3.63;;
33074;SDS011;19433;51.292;6.868;2023-09-19T04:52:57;8.43;;;2.90;;
33074;SDS011;19433;51.292;6.868;2023-09-19T04:55:22;8.67;;;2.83;;
33074;SDS011;19433;51.292;6.868;2023-09-19T04:57:49;7.83;;;3.47;;
33074;SDS011;19433;51.292;6.868;2023-09-19T05:00:16;9.00;;;4.43;;
33074;SDS011;19433;51.292;6.868;2023-09-19T05:02:48;6.17;;;2.93;;
33074;SDS011;19433;51.292;6.868;2023-09-19T05:05:14;6.47;;;3.30;;
33074;SDS011;19433;51.292;6.868;2023-09-19T05:07:42;9.20;;;3.00;;
33074;SDS011;19433;51.292;6.868;2023-09-19T05:10:07;7.50;;;2.70;;
33074;SDS011;19433;51.292;6.868;2023-09-19T05:12:36;10.60;;;4.30;;
33074;SDS011;19433;51.292;6.868;2023-09-19T05:15:02;7.80;;;3.43;;
33074;SDS011;19433;51.292;6.868;2023-09-19T05:17:28;7.87;;;2.60;;
33074;SDS011;19433;51.292;6.868;2023-09-19T05:19:53;9.93;;;2.57;;
33074;SDS011;19433;51.292;6.868;2023-09-19T05:22:19;7.03;;;2.80;;
33074;SDS011;19433;51.292;6.868;2023-09-19T05:24:44;15.87;;;3.60;;
33074;SDS011;19433;51.292;6.868;2023-09-19T05:27:13;9.70;;;2.60;;
33074;SDS011;19433;51.292;6.868;2023-09-19T05:29:42;7.50;;;3.23;;
33074;SDS011;19433;51.292;6.868;2023-09-19T05:32:09;5.73;;;2.63;;
33074;SDS011;19433;51.292;6.868;2023-09-19T05:34:35;6.00;;;2.90;;
33074;SDS011;19433;51.292;6.868;2023-09-19T05:37:01;8.13;;;3.67;;
33074;SDS011;19433;51.292;6.868;2023-09-19T05:39:26;9.47;;;2.93;;
33074;SDS011;19433;51.292;6.868;2023-09-19T05:41:52;10.83;;;2.90;;
33074;SDS011;19433;51.292;6.868;2023-09-19T05:44:17;7.77;;;3.20;;
33074;SDS011;19433;51.292;6.868;2023-09-19T05:46:42;5.97;;;3.40;;
33074;SDS011;19433;51.292;6.868;2023-09-19T05:49:07;5.17;;;2.67;;
33074;SDS011;19433;51.292;6.868;2023-09-19T05:51:33;12.20;;;3.20;;
33074;SDS011;19433;51.292;6.868;2023-09-19T05:53:58;12.00;;;3.47;;
33074;SDS011;19433;51.292;6.868;2023-09-19T05:56:24;8.43;;;2.90;;
33074;SDS011;19433;51.292;6.868;2023-09-19T05:58:49;9.07;;;2.57;;
33074;SDS011;19433;51.292;6.868;2023-09-19T06:01:17;8.33;;;3.17;;
33074;SDS011;19433;51.292;6.868;2023-09-19T06:03:43;5.70;;;2.57;;
33074;SDS011;19433;51.292;6.868;2023-09-19T06:06:08;7.90;;;2.43;;
33074;SDS011;19433;51.292;6.868;2023-09-19T06:08:34;7.90;;;3.17;;
33074;SDS011;19433;51.292;6.868;2023-09-19T06:10:59;11.00;;;3.20;;
33074;SDS011;19433;51.292;6.868;2023-09-19T06:13:25;8.23;;;2.83;;
33074;SDS011;19433;51.292;6.868;2023-09-19T06:15:52;8.67;;;3.00;;
33074;SDS011;19433;51.292;6.868;2023-09-19T06:18:17;8.07;;;3.07;;
33074;SDS011;19433;51.292;6.868;2023-09-19T06:20:46;7.43;;;3.27;;
33074;SDS011;19433;51.292;6.868;2023-09-19T06:23:12;11.93;;;3.40;;
33074;SDS011;19433;51.292;6.868;2023-09-19T06:25:38;5.53;;;2.83;;
33074;SDS011;19433;51.292;6.868;2023-09-19T06:28:04;7.70;;;2.90;;
33074;SDS011;19433;51.292;6.868;2023-09-19T06:30:30;10.90;;;2.70;;
33074;SDS011;19433;51.292;6.868;2023-09-19T06:32:56;4.03;;;2.50;;
33074;SDS011;19433;51.292;6.868;2023-09-19T06:35:21;7.90;;;2.63;;
33074;SDS011;19433;51.292;6.868;2023-09-19T06:37:47;13.33;;;2.50;;
33074;SDS011;19433;51.292;6.868;2023-09-19T06:40:13;6.60;;;2.60;;
33074;SDS011;19433;51.292;6.868;2023-09-19T06:42:51;11.53;;;3.20;;
33074;SDS011;19433;51.292;6.868;2023-09-19T06:45:21;7.13;;;3.20;;
33074;SDS011;19433;51.292;6.868;2023-09-19T06:47:50;7.10;;;2.93;;
33074;SDS011;19433;51.292;6.868;2023-09-19T06:50:16;8.87;;;2.27;;
33074;SDS011;19433;51.292;6.868;2023-09-19T06:52:44;8.73;;;3.00;;
33074;SDS011;19433;51.292;6.868;2023-09-19T06:55:10;8.90;;;3.37;;
33074;SDS011;19433;51.292;6.868;2023-09-19T06:57:38;7.37;;;2.83;;
33074;SDS011;19433;51.292;6.868;2023-09-19T07:00:05;9.53;;;3.23;;
33074;SDS011;19433;51.292;6.868;2023-09-19T07:02:40;8.97;;;2.93;;
33074;SDS011;19433;51.292;6.868;2023-09-19T07:05:09;7.77;;;2.47;;
33074;SDS011;19433;51.292;6.868;2023-09-19T07:07:34;9.20;;;3.20;;
33074;SDS011;19433;51.292;6.868;2023-09-19T07:10:03;10.30;;;3.23;;
33074;SDS011;19433;51.292;6.868;2023-09-19T07:12:35;4.80;;;2.67;;
33074;SDS011;19433;51.292;6.868;2023-09-19T07:15:00;8.20;;;3.40;;
33074;SDS011;19433;51.292;6.868;2023-09-19T07:17:25;4.37;;;2.50;;
33074;SDS011;19433;51.292;6.868;2023-09-19T07:19:51;8.27;;;2.80;;
33074;SDS011;19433;51.292;6.868;2023-09-19T07:22:16;7.03;;;2.57;;
33074;SDS011;19433;51.292;6.868;2023-09-19T07:24:41;7.17;;;2.90;;
33074;SDS011;19433;51.292;6.868;2023-09-19T07:27:06;9.23;;;3.37;;
33074;SDS011;19433;51.292;6.868;2023-09-19T07:29:32;10.23;;;3.00;;
33074;SDS011;19433;51.292;6.868;2023-09-19T07:31:57;3.90;;;2.30;;
33074;SDS011;19433;51.292;6.868;2023-09-19T07:34:23;7.13;;;3.30;;
33074;SDS011;19433;51.292;6.868;2023-09-19T07:36:48;13.43;;;4.07;;
33074;SDS011;19433;51.292;6.868;2023-09-19T07:39:13;8.73;;;3.33;;
33074;SDS011;19433;51.292;6.868;2023-09-19T07:41:39;10.80;;;2.60;;
33074;SDS011;19433;51.292;6.868;2023-09-19T07:44:04;8.00;;;2.73;;
33074;SDS011;19433;51.292;6.868;2023-09-19T07:46:29;7.77;;;3.00;;
33074;SDS011;19433;51.292;6.868;2023-09-19T07:48:56;8.63;;;3.43;;
33074;SDS011;19433;51.292;6.868;2023-09-19T07:51:21;7.07;;;3.53;;
33074;SDS011;19433;51.292;6.868;2023-09-19T07:53:47;6.20;;;2.97;;
33074;SDS011;19433;51.292;6.868;2023-09-19T07:56:13;5.87;;;2.70;;
33074;SDS011;19433;51.292;6.868;2023-09-19T07:58:39;6.43;;;3.70;;
33074;SDS011;19433;51.292;6.868;2023-09-19T08:01:09;6.57;;;2.77;;
33074;SDS011;19433;51.292;6.868;2023-09-19T08:03:35;8.07;;;2.27;;
33074;SDS011;19433;51.292;6.868;2023-09-19T08:06:05;9.00;;;3.33;;
33074;SDS011;19433;51.292;6.868;2023-09-19T08:08:32;7.87;;;3.53;;
33074;SDS011;19433;51.292;6.868;2023-09-19T08:11:02;10.57;;;3.27;;
33074;SDS011;19433;51.292;6.868;2023-09-19T08:13:29;9.53;;;3.20;;
33074;SDS011;19433;51.292;6.868;2023-09-19T08:15:56;8.03;;;2.27;;
33074;SDS011;19433;51.292;6.868;2023-09-19T08:18:21;8.13;;;3.27;;
33074;SDS011;19433;51.292;6.868;2023-09-19T08:20:50;6.83;;;2.53;;
33074;SDS011;19433;51.292;6.868;2023-09-19T08:23:17;5.80;;;2.60;;
33074;SDS011;19433;51.292;6.868;2023-09-19T08:25:46;9.60;;;3.83;;
33074;SDS011;19433;51.292;6.868;2023-09-19T08:28:12;7.07;;;2.90;;
33074;SDS011;19433;51.292;6.868;2023-09-19T08:30:42;8.07;;;3.00;;
33074;SDS011;19433;51.292;6.868;2023-09-19T08:33:07;8.90;;;2.67;;
33074;SDS011;19433;51.292;6.868;2023-09-19T08:35:33;4.00;;;2.00;;
33074;SDS011;19433;51.292;6.868;2023-09-19T08:37:58;6.40;;;2.60;;
33074;SDS011;19433;51.292;6.868;2023-09-19T08:40:29;4.73;;;2.67;;
33074;SDS011;19433;51.292;6.868;2023-09-19T08:42:58;4.90;;;2.50;;
33074;SDS011;19433;51.292;6.868;2023-09-19T08:45:24;8.97;;;2.73;;
33074;SDS011;19433;51.292;6.868;2023-09-19T08:56:24;6.53;;;2.63;;
33074;SDS011;19433;51.292;6.868;2023-09-19T08:58:53;8.00;;;2.83;;
33074;SDS011;19433;51.292;6.868;2023-09-19T09:01:23;5.50;;;2.03;;
33074;SDS011;19433;51.292;6.868;2023-09-19T09:03:52;10.43;;;3.00;;
33074;SDS011;19433;51.292;6.868;2023-09-19T09:06:18;6.60;;;2.80;;
33074;SDS011;19433;51.292;6.868;2023-09-19T09:08:45;5.27;;;2.40;;
33074;SDS011;19433;51.292;6.868;2023-09-19T09:11:11;10.73;;;3.23;;
33074;SDS011;19433;51.292;6.868;2023-09-19T09:13:37;5.30;;;2.47;;
33074;SDS011;19433;51.292;6.868;2023-09-19T09:16:04;7.90;;;2.90;;
33074;SDS011;19433;51.292;6.868;2023-09-19T09:18:29;4.20;;;2.53;;
33074;SDS011;19433;51.292;6.868;2023-09-19T09:20:55;7.10;;;3.00;;
33074;SDS011;19433;51.292;6.868;2023-09-19T09:23:21;8.30;;;2.87;;
33074;SDS011;19433;51.292;6.868;2023-09-19T09:25:47;6.10;;;2.27;;
33074;SDS011;19433;51.292;6.868;2023-09-19T09:28:26;5.80;;;3.07;;
33074;SDS011;19433;51.292;6.868;2023-09-19T09:30:53;4.07;;;2.60;;
33074;SDS011;19433;51.292;6.868;2023-09-19T09:33:19;6.73;;;2.70;;
33074;SDS011;19433;51.292;6.868;2023-09-19T09:35:54;6.40;;;2.73;;
33074;SDS011;19433;51.292;6.868;2023-09-19T09:38:28;6.63;;;2.30;;
33074;SDS011;19433;51.292;6.868;2023-09-19T09:40:58;5.70;;;3.00;;
33074;SDS011;19433;51.292;6.868;2023-09-19T09:43:40;5.57;;;2.20;;
33074;SDS011;19433;51.292;6.868;2023-09-19T09:46:11;5.33;;;2.13;;
33074;SDS011;19433;51.292;6.868;2023-09-19T09:48:47;9.10;;;3.17;;
33074;SDS011;19433;51.292;6.868;2023-09-19T09:51:38;4.80;;;2.47;;
33074;SDS011;19433;51.292;6.868;2023-09-19T09:54:11;4.90;;;2.30;;
33074;SDS011;19433;51.292;6.868;2023-09-19T10:02:27;12.60;;;2.80;;
33074;SDS011;19433;51.292;6.868;2023-09-19T10:04:57;4.73;;;2.23;;
33074;SDS011;19433;51.292;6.868;2023-09-19T10:07:39;4.07;;;2.37;;
33074;SDS011;19433;51.292;6.868;2023-09-19T10:10:14;4.17;;;2.33;;
33074;SDS011;19433;51.292;6.868;2023-09-19T10:12:46;4.37;;;2.20;;
33074;SDS011;19433;51.292;6.868;2023-09-19T10:15:13;4.73;;;2.73;;
33074;SDS011;19433;51.292;6.868;2023-09-19T10:17:41;7.07;;;3.17;;
33074;SDS011;19433;51.292;6.868;2023-09-19T10:20:09;6.97;;;2.50;;
33074;SDS011;19433;51.292;6.868;2023-09-19T10:22:47;7.33;;;3.00;;
33074;SDS011;19433;51.292;6.868;2023-09-19T10:25:23;8.77;;;2.67;;
33074;SDS011;19433;51.292;6.868;2023-09-19T10:27:51;6.90;;;2.67;;
33074;SDS011;19433;51.292;6.868;2023-09-19T10:30:20;7.53;;;2.77;;
33074;SDS011;19433;51.292;6.868;2023-09-19T10:32:48;4.97;;;2.63;;
33074;SDS011;19433;51.292;6.868;2023-09-19T10:35:24;8.40;;;3.17;;
33074;SDS011;19433;51.292;6.868;2023-09-19T10:37:51;5.53;;;2.63;;
33074;SDS011;19433;51.292;6.868;2023-09-19T10:40:19;5.40;;;2.53;;
33074;SDS011;19433;51.292;6.868;2023-09-19T10:42:46;7.27;;;2.90;;
33074;SDS011;19433;51.292;6.868;2023-09-19T10:45:15;5.70;;;2.60;;
33074;SDS011;19433;51.292;6.868;2023-09-19T10:47:45;3.80;;;2.23;;
33074;SDS011;19433;51.292;6.868;2023-09-19T10:50:19;6.83;;;2.90;;
33074;SDS011;19433;51.292;6.868;2023-09-19T10:52:49;4.63;;;2.50;;
33074;SDS011;19433;51.292;6.868;2023-09-19T10:55:23;5.90;;;2.10;;
33074;SDS011;19433;51.292;6.868;2023-09-19T10:57:50;5.30;;;2.40;;
33074;SDS011;19433;51.292;6.868;2023-09-19T11:00:16;4.77;;;2.37;;
33074;SDS011;19433;51.292;6.868;2023-09-19T11:05:40;6.33;;;3.10;;
33074;SDS011;19433;51.292;6.868;2023-09-19T11:08:08;4.50;;;2.13;;
33074;SDS011;19433;51.292;6.868;2023-09-19T11:10:46;5.10;;;2.37;;
33074;SDS011;19433;51.292;6.868;2023-09-19T11:13:25;5.73;;;3.03;;
33074;SDS011;19433;51.292;6.868;2023-09-19T11:26:47;3.40;;;2.20;;
33074;SDS011;19433;51.292;6.868;2023-09-19T11:29:28;3.63;;;2.30;;
33074;SDS011;19433;51.292;6.868;2023-09-19T11:31:56;4.50;;;2.43;;
33074;SDS011;19433;51.292;6.868;2023-09-19T11:39:39;5.13;;;2.37;;
33074;SDS011;19433;51.292;6.868;2023-09-19T11:48:11;7.70;;;2.40;;
33074;SDS011;19433;51.292;6.868;2023-09-19T11:50:41;4.93;;;2.23;;
33074;SDS011;19433;51.292;6.868;2023-09-19T11:53:09;8.97;;;2.30;;
33074;SDS011;19433;51.292;6.868;2023-09-19T11:55:37;5.10;;;2.23;;
33074;SDS011;19433;51.292;6.868;2023-09-19T11:58:03;5.03;;;2.50;;
33074;SDS011;19433;51.292;6.868;2023-09-19T12:00:30;3.10;;;1.97;;
33074;SDS011;19433;51.292;6.868;2023-09-19T12:02:56;2.50;;;1.80;;
33074;SDS011;19433;51.292;6.868;2023-09-19T12:05:30;3.03;;;2.13;;
33074;SDS011;19433;51.292;6.868;2023-09-19T12:07:58;5.10;;;2.77;;
33074;SDS011;19433;51.292;6.868;2023-09-19T12:10:23;5.87;;;2.40;;
33074;SDS011;19433;51.292;6.868;2023-09-19T12:12:49;5.60;;;2.43;;
33074;SDS011;19433;51.292;6.868;2023-09-19T12:15:14;5.17;;;2.10;;
33074;SDS011;19433;51.292;6.868;2023-09-19T12:17:40;4.30;;;2.60;;
33074;SDS011;19433;51.292;6.868;2023-09-19T12:20:07;4.73;;;2.63;;
33074;SDS011;19433;51.292;6.868;2023-09-19T12:22:40;5.43;;;2.20;;
33074;SDS011;19433;51.292;6.868;2023-09-19T12:25:06;4.93;;;2.97;;
33074;SDS011;19433;51.292;6.868;2023-09-19T12:27:40;5.17;;;2.57;;
33074;SDS011;19433;51.292;6.868;2023-09-19T12:30:08;6.13;;;2.40;;
33074;SDS011;19433;51.292;6.868;2023-09-19T12:32:35;3.70;;;2.10;;
33074;SDS011;19433;51.292;6.868;2023-09-19T12:35:01;3.80;;;2.33;;
33074;SDS011;19433;51.292;6.868;2023-09-19T12:37:32;7.33;;;2.40;;
33074;SDS011;19433;51.292;6.868;2023-09-19T12:40:04;3.50;;;2.47;;
33074;SDS011;19433;51.292;6.868;2023-09-19T12:42:47;4.83;;;2.90;;
33074;SDS011;19433;51.292;6.868;2023-09-19T12:45:13;3.93;;;2.20;;
33074;SDS011;19433;51.292;6.868;2023-09-19T12:53:32;6.37;;;2.20;;
33074;SDS011;19433;51.292;6.868;2023-09-19T12:56:00;6.03;;;2.20;;
33074;SDS011;19433;51.292;6.868;2023-09-19T12:58:25;3.00;;;1.63;;
33074;SDS011;19433;51.292;6.868;2023-09-19T13:00:51;4.40;;;1.40;;
33074;SDS011;19433;51.292;6.868;2023-09-19T13:11:17;6.27;;;2.23;;
33074;SDS011;19433;51.292;6.868;2023-09-19T13:13:46;3.73;;;1.40;;
33074;SDS011;19433;51.292;6.868;2023-09-19T13:16:52;3.00;;;1.70;;
33074;SDS011;19433;51.292;6.868;2023-09-19T13:19:39;2.60;;;1.70;;
33074;SDS011;19433;51.292;6.868;2023-09-19T13:25:03;2.67;;;1.73;;
33074;SDS011;19433;51.292;6.868;2023-09-19T13:27:31;3.30;;;1.60;;
33074;SDS011;19433;51.292;6.868;2023-09-19T13:29:57;3.80;;;1.60;;
33074;SDS011;19433;51.292;6.868;2023-09-19T13:32:23;2.33;;;1.30;;
33074;SDS011;19433;51.292;6.868;2023-09-19T13:34:49;1.43;;;1.30;;
33074;SDS011;19433;51.292;6.868;2023-09-19T13:37:14;3.67;;;2.20;;
33074;SDS011;19433;51.292;6.868;2023-09-19T13:39:41;2.50;;;1.30;;
33074;SDS011;19433;51.292;6.868;2023-09-19T13:42:12;2.20;;;1.13;;
33074;SDS011;19433;51.292;6.868;2023-09-19T13:44:38;3.50;;;1.57;;
33074;SDS011;19433;51.292;6.868;2023-09-19T13:47:03;1.60;;;1.37;;
33074;SDS011;19433;51.292;6.868;2023-09-19T13:49:34;4.40;;;1.73;;
33074;SDS011;19433;51.292;6.868;2023-09-19T13:52:00;2.80;;;1.57;;
33074;SDS011;19433;51.292;6.868;2023-09-19T13:54:28;2.53;;;1.33;;
33074;SDS011;19433;51.292;6.868;2023-09-19T13:56:53;2.10;;;1.17;;
33074;SDS011;19433;51.292;6.868;2023-09-19T13:59:19;6.67;;;1.70;;
33074;SDS011;19433;51.292;6.868;2023-09-19T14:01:44;3.37;;;1.40;;
33074;SDS011;19433;51.292;6.868;2023-09-19T14:04:09;3.83;;;1.50;;
33074;SDS011;19433;51.292;6.868;2023-09-19T14:06:36;4.13;;;1.80;;
33074;SDS011;19433;51.292;6.868;2023-09-19T14:09:03;3.67;;;1.57;;
33074;SDS011;19433;51.292;6.868;2023-09-19T14:11:29;4.63;;;1.50;;
33074;SDS011;19433;51.292;6.868;2023-09-19T14:13:54;3.93;;;1.40;;
33074;SDS011;19433;51.292;6.868;2023-09-19T14:16:19;2.50;;;1.13;;
33074;SDS011;19433;51.292;6.868;2023-09-19T14:18:47;2.00;;;1.20;;
33074;SDS011;19433;51.292;6.868;2023-09-19T14:21:12;3.40;;;1.33;;
33074;SDS011;19433;51.292;6.868;2023-09-19T14:23:38;3.07;;;1.23;;
33074;SDS011;19433;51.292;6.868;2023-09-19T14:26:04;3.63;;;1.63;;
33074;SDS011;19433;51.292;6.868;2023-09-19T14:28:33;1.53;;;1.10;;
33074;SDS011;19433;51.292;6.868;2023-09-19T14:31:04;2.70;;;1.63;;
33074;SDS011;19433;51.292;6.868;2023-09-19T14:33:31;3.60;;;1.30;;
33074;SDS011;19433;51.292;6.868;2023-09-19T14:35:56;3.17;;;1.53;;
33074;SDS011;19433;51.292;6.868;2023-09-19T14:38:21;3.27;;;1.20;;
33074;SDS011;19433;51.292;6.868;2023-09-19T14:40:47;3.40;;;1.23;;
33074;SDS011;19433;51.292;6.868;2023-09-19T14:43:14;1.40;;;1.17;;
33074;SDS011;19433;51.292;6.868;2023-09-19T14:45:40;7.93;;;1.70;;
33074;SDS011;19433;51.292;6.868;2023-09-19T14:48:05;3.47;;;1.27;;
33074;SDS011;19433;51.292;6.868;2023-09-19T14:50:31;1.90;;;1.00;;
33074;SDS011;19433;51.292;6.868;2023-09-19T14:52:56;2.70;;;1.33;;
33074;SDS011;19433;51.292;6.868;2023-09-19T14:55:23;1.73;;;1.00;;
33074;SDS011;19433;51.292;6.868;2023-09-19T14:57:48;3.07;;;1.27;;
33074;SDS011;19433;51.292;6.868;2023-09-19T15:00:16;5.37;;;1.40;;
33074;SDS011;19433;51.292;6.868;2023-09-19T15:02:41;2.13;;;1.20;;
33074;SDS011;19433;51.292;6.868;2023-09-19T15:05:07;3.13;;;1.20;;
33074;SDS011;19433;51.292;6.868;2023-09-19T15:07:34;2.37;;;1.30;;
33074;SDS011;19433;51.292;6.868;2023-09-19T15:10:01;5.03;;;1.43;;
33074;SDS011;19433;51.292;6.868;2023-09-19T15:12:27;4.13;;;1.67;;
33074;SDS011;19433;51.292;6.868;2023-09-19T15:14:54;3.80;;;0.83;;
33074;SDS011;19433;51.292;6.868;2023-09-19T15:17:19;2.03;;;1.10;;
33074;SDS011;19433;51.292;6.868;2023-09-19T15:19:44;2.70;;;1.30;;
33074;SDS011;19433;51.292;6.868;2023-09-19T15:22:09;6.10;;;2.27;;
33074;SDS011;19433;51.292;6.868;2023-09-19T15:24:36;2.07;;;1.37;;
33074;SDS011;19433;51.292;6.868;2023-09-19T15:27:01;1.80;;;0.83;;
33074;SDS011;19433;51.292;6.868;2023-09-19T15:29:26;3.87;;;1.50;;
33074;SDS011;19433;51.292;6.868;2023-09-19T15:31:52;5.30;;;1.33;;
33074;SDS011;19433;51.292;6.868;2023-09-19T15:34:17;2.27;;;1.03;;
33074;SDS011;19433;51.292;6.868;2023-09-19T15:36:42;3.40;;;1.00;;
33074;SDS011;19433;51.292;6.868;2023-09-19T15:39:09;3.33;;;1.23;;
33074;SDS011;19433;51.292;6.868;2023-09-19T15:41:40;1.13;;;0.97;;
33074;SDS011;19433;51.292;6.868;2023-09-19T15:44:15;2.77;;;1.10;;
33074;SDS011;19433;51.292;6.868;2023-09-19T15:46:43;2.93;;;1.10;;
33074;SDS011;19433;51.292;6.868;2023-09-19T15:49:09;1.97;;;1.33;;
33074;SDS011;19433;51.292;6.868;2023-09-19T15:51:34;3.10;;;1.00;;
33074;SDS011;19433;51.292;6.868;2023-09-19T15:54:11;2.37;;;1.10;;